createdAt,value
2022-10-04T00:00:19.509Z,12.13
2022-10-04T00:02:26.657Z,12.13
2022-10-04T00:04:19.980Z,12.13
2022-10-04T00:06:19.877Z,12.15
2022-10-04T00:08:15.520Z,12.12
2022-10-04T00:10:41.920Z,12.12
2022-10-04T00:13:21.228Z,12.12
2022-10-04T00:16:14.205Z,12.12
2022-10-04T00:18:06.281Z,12.10
2022-10-04T00:22:10.597Z,12.10
2022-10-04T00:24:01.163Z,12.12
2022-10-04T00:25:16.961Z,12.10
2022-10-04T00:27:38.373Z,12.09
2022-10-04T00:29:09.708Z,12.09
2022-10-04T00:31:28.796Z,12.09
2022-10-04T00:33:04.654Z,12.07
2022-10-04T00:34:36.086Z,12.09
2022-10-04T00:36:10.985Z,12.09
2022-10-04T00:38:38.778Z,12.06
2022-10-04T00:40:07.017Z,12.07
2022-10-04T00:44:29.916Z,12.06
2022-10-04T00:47:13.403Z,12.06
2022-10-04T00:50:56.617Z,12.06
2022-10-04T00:54:26.662Z,12.06
2022-10-04T00:55:24.567Z,12.04
2022-10-04T00:56:03.005Z,12.06
2022-10-04T00:58:24.657Z,12.04
2022-10-04T01:01:34.943Z,12.03
2022-10-04T01:03:08.374Z,12.02
2022-10-04T01:04:36.880Z,12.03
2022-10-04T01:06:48.093Z,12.04
2022-10-04T01:08:23.887Z,12.03
2022-10-04T01:11:29.745Z,12.03
2022-10-04T01:13:17.017Z,12.02
2022-10-04T01:15:58.790Z,12.02
2022-10-04T01:21:29.138Z,12.03
2022-10-04T01:27:58.486Z,12.04
2022-10-04T01:31:14.878Z,12.03
2022-10-04T01:34:12.441Z,12.03
2022-10-04T01:41:03.882Z,12.04
2022-10-04T01:42:33.763Z,12.03
2022-10-04T01:45:26.874Z,12.03
2022-10-04T01:47:48.993Z,12.03
2022-10-04T01:49:35.731Z,12.03
2022-10-04T01:51:06.631Z,12.03
2022-10-04T01:53:08.314Z,12.03
2022-10-04T01:55:53.558Z,12.04
2022-10-04T01:58:18.363Z,12.04
2022-10-04T02:00:30.183Z,12.03
2022-10-04T02:02:17.563Z,12.03
2022-10-04T02:04:40.577Z,12.03
2022-10-04T02:07:25.071Z,12.03
2022-10-04T02:11:21.844Z,12.04
2022-10-04T02:12:53.018Z,12.03
2022-10-04T02:14:29.538Z,12.04
2022-10-04T02:16:45.426Z,12.04
2022-10-04T02:17:55.295Z,12.04
2022-10-04T02:20:10.325Z,12.04
2022-10-04T02:21:56.715Z,12.03
2022-10-04T02:23:55.866Z,12.03
2022-10-04T02:25:25.922Z,12.03
2022-10-04T02:28:31.738Z,12.00
2022-10-04T02:31:25.022Z,11.95
2022-10-04T02:36:15.716Z,11.91
2022-10-04T02:39:27.549Z,11.90
2022-10-04T02:40:32.175Z,11.88
2022-10-04T02:42:04.456Z,11.87
2022-10-04T02:44:08.099Z,11.86
2022-10-04T02:47:19.527Z,11.81
2022-10-04T02:48:51.102Z,11.81
2022-10-04T02:50:20.971Z,11.80
2022-10-04T02:55:13.158Z,11.75
2022-10-04T03:03:34.642Z,11.72
2022-10-04T03:05:07.365Z,11.70
2022-10-04T03:06:39.429Z,11.70
2022-10-04T03:09:05.564Z,11.68
2022-10-04T03:10:55.043Z,11.63
2022-10-04T03:13:34.072Z,11.60
2022-10-04T03:15:27.549Z,11.59
2022-10-04T03:16:59.455Z,11.59
2022-10-04T03:22:03.346Z,11.51
2022-10-04T03:26:04.749Z,11.45
2022-10-04T03:28:14.177Z,11.43
2022-10-04T03:29:46.123Z,11.41
2022-10-04T03:32:06.479Z,11.40
2022-10-04T03:38:34.455Z,11.36
2022-10-04T03:40:06.027Z,11.33
2022-10-04T03:41:38.517Z,11.35
2022-10-04T03:43:25.776Z,11.33
2022-10-04T03:47:40.728Z,11.27
2022-10-04T03:49:12.708Z,11.27
2022-10-04T03:51:09.543Z,11.26
2022-10-04T03:52:46.860Z,11.25
2022-10-04T03:54:22.778Z,11.23
2022-10-04T03:57:22.165Z,11.19
2022-10-04T04:02:46.206Z,11.15
2022-10-04T04:05:51.433Z,11.12
2022-10-04T04:07:49.257Z,11.11
2022-10-04T04:09:48.824Z,11.08
2022-10-04T04:13:59.110Z,11.05
2022-10-04T04:17:42.733Z,11.00
2022-10-04T04:19:42.592Z,10.97
2022-10-04T04:22:18.651Z,10.97
2022-10-04T04:24:04.455Z,10.96
2022-10-04T04:27:29.291Z,10.94
2022-10-04T04:30:31.905Z,10.93
2022-10-04T04:42:42.776Z,10.86
2022-10-04T04:54:45.023Z,10.76
2022-10-04T04:59:06.000Z,10.75
2022-10-04T05:07:40.512Z,10.71
2022-10-04T05:10:16.468Z,10.69
2022-10-04T05:15:40.137Z,10.67
2022-10-04T05:18:11.245Z,10.63
2022-10-04T05:22:55.087Z,10.61
2022-10-04T05:31:07.602Z,10.54
2022-10-04T05:33:15.224Z,10.54
2022-10-04T05:35:07.553Z,10.54
2022-10-04T05:38:23.893Z,10.53
2022-10-04T05:40:37.844Z,10.49
2022-10-04T05:47:33.754Z,10.44
2022-10-04T05:58:38.102Z,10.41
2022-10-04T06:16:10.551Z,10.40
2022-10-04T06:24:07.724Z,10.44
2022-10-04T06:31:32.580Z,10.46
2022-10-04T06:34:00.915Z,10.49
2022-10-04T06:35:33.202Z,10.51
2022-10-04T06:37:48.559Z,10.53
2022-10-04T06:40:02.389Z,10.54
2022-10-04T07:03:09.238Z,10.63
2022-10-04T07:06:33.767Z,10.64
2022-10-04T07:14:35.119Z,10.74
2022-10-04T07:23:50.750Z,10.84
2022-10-04T07:26:36.084Z,10.90
2022-10-04T07:28:07.812Z,10.92
2022-10-04T07:31:50.890Z,10.96
2022-10-04T07:34:11.923Z,10.99
2022-10-04T07:41:45.651Z,11.10
2022-10-04T07:45:49.031Z,11.15
2022-10-04T07:48:02.242Z,11.19
2022-10-04T07:50:39.291Z,11.26
2022-10-04T07:53:09.316Z,11.32
2022-10-04T07:54:54.793Z,11.35
2022-10-04T07:58:12.589Z,11.44
2022-10-04T08:00:17.422Z,11.52
2022-10-04T08:07:47.127Z,11.77
2022-10-04T08:09:16.720Z,11.83
2022-10-04T08:11:38.341Z,11.88
2022-10-04T08:13:06.418Z,11.97
2022-10-04T08:28:09.020Z,12.60
2022-10-04T08:29:40.787Z,12.64
2022-10-04T08:33:00.278Z,12.72
2022-10-04T08:34:48.023Z,12.76
2022-10-04T08:37:14.413Z,12.78
2022-10-04T08:40:47.540Z,12.82
2022-10-04T08:43:46.344Z,12.85
2022-10-04T08:51:54.064Z,13.15
2022-10-04T08:59:37.245Z,13.27
2022-10-04T09:02:14.987Z,13.31
2022-10-04T09:04:10.401Z,13.30
2022-10-04T09:08:36.911Z,13.30
2022-10-04T09:10:51.025Z,13.39
2022-10-04T09:20:13.938Z,13.74
2022-10-04T09:25:42.381Z,13.97
2022-10-04T09:28:00.572Z,14.04
2022-10-04T09:30:18.118Z,14.08
2022-10-04T09:35:23.724Z,14.25
2022-10-04T09:47:56.353Z,14.72
2022-10-04T09:49:55.070Z,14.81
2022-10-04T09:51:48.048Z,14.85
2022-10-04T09:53:52.223Z,14.94
2022-10-04T09:55:22.720Z,15.00
2022-10-04T10:05:30.441Z,15.40
2022-10-04T10:06:09.445Z,15.44
2022-10-04T10:07:09.410Z,15.52
2022-10-04T10:08:09.441Z,15.55
2022-10-04T10:10:12.323Z,15.67
2022-10-04T10:12:44.879Z,15.79
2022-10-04T10:15:22.610Z,15.92
2022-10-04T10:17:15.632Z,15.94
2022-10-04T10:20:13.218Z,16.10
2022-10-04T10:23:18.966Z,16.29
2022-10-04T10:25:44.796Z,16.43
2022-10-04T10:29:47.912Z,16.65
2022-10-04T10:32:20.135Z,16.78
2022-10-04T10:33:50.164Z,16.87
2022-10-04T10:36:13.010Z,17.02
2022-10-04T10:40:43.214Z,17.36
2022-10-04T10:42:12.322Z,17.49
2022-10-04T10:43:43.106Z,17.68
2022-10-04T10:45:14.307Z,17.86
2022-10-04T10:53:51.501Z,18.59
2022-10-04T10:55:58.139Z,18.56
2022-10-04T11:02:50.275Z,18.99
2022-10-04T11:07:05.461Z,19.39
2022-10-04T11:08:35.149Z,19.49
2022-10-04T11:10:06.085Z,19.47
2022-10-04T11:11:58.866Z,19.55
2022-10-04T11:13:54.710Z,19.70
2022-10-04T11:18:45.885Z,20.11
2022-10-04T11:20:51.316Z,20.32
2022-10-04T11:22:25.240Z,20.39
2022-10-04T11:28:49.747Z,20.78
2022-10-04T11:30:18.371Z,20.92
2022-10-04T11:36:47.019Z,21.20
2022-10-04T11:39:07.975Z,21.20
2022-10-04T11:42:17.574Z,21.15
2022-10-04T11:45:24.878Z,21.37
2022-10-04T11:49:32.398Z,21.30
2022-10-04T11:52:51.879Z,21.18
2022-10-04T11:54:21.728Z,21.30
2022-10-04T11:57:27.190Z,21.20
2022-10-04T12:03:55.344Z,21.51
2022-10-04T12:05:26.410Z,21.57
2022-10-04T12:09:58.665Z,21.73
2022-10-04T12:11:25.376Z,21.75
2022-10-04T12:13:24.859Z,21.83
2022-10-04T12:22:29.075Z,22.07
2022-10-04T12:24:38.828Z,21.85
2022-10-04T12:27:05.973Z,21.92
2022-10-04T12:30:28.871Z,22.14
2022-10-04T12:33:49.709Z,22.02
2022-10-04T12:36:04.357Z,21.99
2022-10-04T12:38:42.710Z,21.93
2022-10-04T12:41:45.244Z,21.92
2022-10-04T12:45:40.488Z,21.99
2022-10-04T12:48:06.327Z,21.88
2022-10-04T12:50:04.051Z,21.80
2022-10-04T12:52:20.501Z,21.48
2022-10-04T12:55:26.976Z,21.29
2022-10-04T12:59:01.118Z,20.99
2022-10-04T13:10:25.571Z,20.47
2022-10-04T13:13:31.540Z,20.50
2022-10-04T13:19:47.000Z,20.32
2022-10-04T13:26:36.099Z,20.02
2022-10-04T13:29:14.899Z,19.81
2022-10-04T13:32:20.084Z,19.69
2022-10-04T13:33:52.160Z,19.69
2022-10-04T13:35:48.724Z,19.64
2022-10-04T13:38:38.032Z,19.64
2022-10-04T13:40:08.048Z,19.67
2022-10-04T13:49:49.020Z,19.89
2022-10-04T13:51:48.713Z,19.85
2022-10-04T14:01:46.422Z,19.81
2022-10-04T14:06:16.429Z,19.56
2022-10-04T14:08:05.197Z,19.52
2022-10-04T14:09:39.164Z,19.54
2022-10-04T14:12:21.302Z,19.54
2022-10-04T14:16:22.683Z,19.45
2022-10-04T14:27:26.323Z,19.30
2022-10-04T14:28:55.470Z,19.29
2022-10-04T14:31:55.006Z,19.26
2022-10-04T14:34:53.785Z,19.15
2022-10-04T14:36:53.175Z,19.12
2022-10-04T14:41:20.655Z,18.92
2022-10-04T14:44:41.606Z,18.81
2022-10-04T14:46:40.562Z,18.80
2022-10-04T14:49:27.717Z,18.77
2022-10-04T14:50:57.758Z,18.75
2022-10-04T14:59:48.595Z,18.80
2022-10-04T15:01:19.608Z,18.80
2022-10-04T15:05:34.089Z,18.77
2022-10-04T15:07:06.045Z,18.75
2022-10-04T15:10:56.198Z,18.77
2022-10-04T15:16:23.380Z,18.68
2022-10-04T15:18:24.595Z,18.65
2022-10-04T15:20:55.496Z,18.60
2022-10-04T15:23:18.019Z,18.56
2022-10-04T15:24:29.267Z,18.55
2022-10-04T15:27:22.845Z,18.47
2022-10-04T15:29:52.872Z,18.40
2022-10-04T15:39:03.939Z,18.28
2022-10-04T15:43:06.584Z,18.22
2022-10-04T15:45:39.896Z,18.16
2022-10-04T15:51:32.963Z,18.03
2022-10-04T15:53:36.887Z,17.98
2022-10-04T16:05:22.243Z,17.79
2022-10-04T16:07:54.505Z,17.74
2022-10-04T16:09:21.752Z,17.74
2022-10-04T16:12:41.691Z,17.71
2022-10-04T16:16:08.506Z,17.65
2022-10-04T16:20:47.282Z,17.56
2022-10-04T16:33:27.361Z,17.34
2022-10-04T16:48:08.219Z,17.06
2022-10-04T16:57:24.281Z,16.79
2022-10-04T17:04:56.519Z,16.53
2022-10-04T17:06:48.706Z,16.49
2022-10-04T17:07:48.406Z,16.42
2022-10-04T17:08:48.273Z,16.39
2022-10-04T17:09:48.211Z,16.38
2022-10-04T17:19:16.884Z,16.01
2022-10-04T17:24:23.967Z,15.86
2022-10-04T17:28:11.121Z,15.73
2022-10-04T17:36:15.970Z,15.49
2022-10-04T17:40:05.170Z,15.37
2022-10-04T17:48:33.096Z,15.19
2022-10-04T17:50:16.498Z,15.17
2022-10-04T17:53:40.058Z,15.06
2022-10-04T17:59:11.082Z,15.00
2022-10-04T18:00:45.365Z,14.99
2022-10-04T18:04:16.678Z,14.94
2022-10-04T18:10:47.500Z,14.92
2022-10-04T18:12:20.378Z,14.92
2022-10-04T18:14:55.487Z,14.92
2022-10-04T18:22:54.529Z,14.91
2022-10-04T18:26:39.430Z,14.92
2022-10-04T18:32:33.858Z,14.92
2022-10-04T18:35:41.828Z,14.92
2022-10-04T18:38:04.612Z,14.88
2022-10-04T18:40:04.231Z,14.86
2022-10-04T18:42:35.408Z,14.85
2022-10-04T18:44:05.545Z,14.84
2022-10-04T18:45:39.887Z,14.82
2022-10-04T18:47:06.935Z,14.81
2022-10-04T18:48:42.621Z,14.79
2022-10-04T18:55:15.736Z,14.73
2022-10-04T18:57:59.055Z,14.69
2022-10-04T18:59:59.825Z,14.70
2022-10-04T19:03:06.385Z,14.70
2022-10-04T19:07:04.069Z,14.68
2022-10-04T19:09:12.450Z,14.66
2022-10-04T19:22:47.589Z,14.58
2022-10-04T19:28:09.810Z,14.53
2022-10-04T19:29:38.159Z,14.51
2022-10-04T19:32:14.528Z,14.47
2022-10-04T19:34:06.510Z,14.45
2022-10-04T19:36:27.830Z,14.43
2022-10-04T19:39:34.823Z,14.37
2022-10-04T19:47:47.427Z,14.29
2022-10-04T19:49:41.352Z,14.29
2022-10-04T19:56:56.000Z,14.30
2022-10-04T19:59:33.780Z,14.29
2022-10-04T20:01:35.045Z,14.30
2022-10-04T20:03:05.115Z,14.30
2022-10-04T20:04:35.937Z,14.32
2022-10-04T20:07:33.807Z,14.30
2022-10-04T20:10:20.733Z,14.29
2022-10-04T20:13:33.134Z,14.28
2022-10-04T20:15:27.665Z,14.30
2022-10-04T20:17:43.287Z,14.30
2022-10-04T20:23:28.658Z,14.33
2022-10-04T20:25:51.468Z,14.33
2022-10-04T20:30:27.468Z,14.30
2022-10-04T20:32:46.836Z,14.30
2022-10-04T20:37:43.532Z,14.32
2022-10-04T20:40:57.838Z,14.33
2022-10-04T20:42:49.541Z,14.33
2022-10-04T20:46:19.904Z,14.35
2022-10-04T20:47:55.467Z,14.35
2022-10-04T20:49:51.268Z,14.36
2022-10-04T20:51:22.138Z,14.36
2022-10-04T20:54:06.187Z,14.36
2022-10-04T20:58:38.599Z,14.40
2022-10-04T21:00:08.123Z,14.41
2022-10-04T21:01:58.829Z,14.43
2022-10-04T21:03:30.870Z,14.44
2022-10-04T21:07:24.745Z,14.47
2022-10-04T21:10:40.969Z,14.47
2022-10-04T21:12:12.612Z,14.48
2022-10-04T21:13:41.719Z,14.50
2022-10-04T21:16:20.986Z,14.50
2022-10-04T21:23:07.822Z,14.51
2022-10-04T21:25:28.411Z,14.53
2022-10-04T21:27:17.719Z,14.53
2022-10-04T21:30:13.569Z,14.54
2022-10-04T21:32:03.675Z,14.54
2022-10-04T21:34:07.217Z,14.55
2022-10-04T21:38:01.150Z,14.59
2022-10-04T21:40:34.997Z,14.60
2022-10-04T21:42:21.499Z,14.60
2022-10-04T21:45:36.265Z,14.63
2022-10-04T21:48:14.771Z,14.63
2022-10-04T21:50:04.343Z,14.63
2022-10-04T21:59:41.988Z,14.65
2022-10-04T22:01:12.161Z,14.66
2022-10-04T22:03:04.019Z,14.66
2022-10-04T22:04:36.371Z,14.66
2022-10-04T22:06:26.839Z,14.69
2022-10-04T22:07:58.702Z,14.69
2022-10-04T22:11:50.104Z,14.70
2022-10-04T22:14:29.512Z,14.70
2022-10-04T22:15:59.092Z,14.72
2022-10-04T22:18:31.635Z,14.73
2022-10-04T22:20:52.176Z,14.77
2022-10-04T22:23:42.172Z,14.78
2022-10-04T22:32:03.677Z,14.79
2022-10-04T22:36:51.389Z,14.79
2022-10-04T22:41:55.044Z,14.82
2022-10-04T22:43:27.749Z,14.82
2022-10-04T22:45:47.455Z,14.84
2022-10-04T22:48:47.453Z,14.84
2022-10-04T22:51:10.639Z,14.85
2022-10-04T22:52:38.752Z,14.85
2022-10-04T22:55:01.567Z,14.86
2022-10-04T22:59:51.235Z,14.86
2022-10-04T23:01:24.071Z,14.86
2022-10-04T23:02:53.251Z,14.86
2022-10-04T23:04:48.894Z,14.86
2022-10-04T23:05:55.535Z,14.86
2022-10-04T23:07:58.608Z,14.86
2022-10-04T23:10:51.045Z,14.86
2022-10-04T23:16:07.791Z,14.86
2022-10-04T23:17:42.763Z,14.88
2022-10-04T23:19:39.305Z,14.86
2022-10-04T23:21:10.327Z,14.86
2022-10-04T23:24:41.678Z,14.88
2022-10-04T23:26:17.448Z,14.88
2022-10-04T23:34:56.399Z,14.88
2022-10-04T23:37:51.749Z,14.86
2022-10-04T23:39:40.108Z,14.88
2022-10-04T23:42:00.973Z,14.85
2022-10-04T23:44:15.296Z,14.86
2022-10-04T23:45:42.817Z,14.86
2022-10-04T23:47:40.688Z,14.86
2022-10-04T23:51:27.610Z,14.85
2022-10-04T23:54:57.960Z,14.86
2022-10-04T23:56:29.876Z,14.86
2022-10-04T23:58:20.323Z,14.86
